createdAt,value
2018-02-09T00:01:32.286Z,31.93
2018-02-09T00:04:00.362Z,27.80
2018-02-09T00:06:28.427Z,30.83
2018-02-09T00:08:56.298Z,24.80
2018-02-09T00:11:24.319Z,26.13
2018-02-09T00:13:53.348Z,23.97
2018-02-09T00:16:21.438Z,23.50
2018-02-09T00:18:49.489Z,22.97
2018-02-09T00:21:17.545Z,23.10
2018-02-09T00:23:45.521Z,25.07
2018-02-09T00:26:13.759Z,23.73
2018-02-09T00:28:42.519Z,24.93
2018-02-09T00:31:10.483Z,29.77
2018-02-09T00:33:38.526Z,35.30
2018-02-09T00:36:06.615Z,33.13
2018-02-09T00:38:34.862Z,31.03
2018-02-09T00:41:02.867Z,30.03
2018-02-09T00:43:31.474Z,29.73
2018-02-09T00:45:59.458Z,31.63
2018-02-09T00:48:28.109Z,38.37
2018-02-09T00:50:56.079Z,28.57
2018-02-09T00:53:24.162Z,31.10
2018-02-09T00:55:52.157Z,29.97
2018-02-09T00:58:20.950Z,26.73
2018-02-09T01:00:49.793Z,27.53
2018-02-09T01:03:17.927Z,26.57
2018-02-09T01:05:45.868Z,25.57
2018-02-09T01:08:14.524Z,26.20
2018-02-09T01:10:42.530Z,23.23
2018-02-09T01:13:11.285Z,21.13
2018-02-09T01:15:39.356Z,25.17
2018-02-09T01:18:07.738Z,28.57
2018-02-09T01:20:35.607Z,33.67
2018-02-09T01:23:03.472Z,40.70
2018-02-09T01:25:31.333Z,35.93
2018-02-09T01:27:59.205Z,31.73
2018-02-09T01:30:27.076Z,28.93
2018-02-09T01:32:54.866Z,25.43
2018-02-09T01:35:23.517Z,26.30
2018-02-09T01:37:51.589Z,26.50
2018-02-09T01:40:19.454Z,24.27
2018-02-09T01:42:47.645Z,25.47
2018-02-09T01:45:15.394Z,21.43
2018-02-09T01:47:43.276Z,27.40
2018-02-09T01:50:16.186Z,24.83
2018-02-09T01:52:44.871Z,27.17
2018-02-09T01:55:13.582Z,27.73
2018-02-09T01:57:41.493Z,27.07
2018-02-09T02:00:09.454Z,28.57
2018-02-09T02:02:37.538Z,28.87
2018-02-09T02:05:05.601Z,27.93
2018-02-09T02:07:33.506Z,26.00
2018-02-09T02:10:02.288Z,28.23
2018-02-09T02:12:30.958Z,30.13
2018-02-09T02:14:59.050Z,27.53
2018-02-09T02:17:27.945Z,27.83
2018-02-09T02:19:56.588Z,31.10
2018-02-09T02:22:24.681Z,27.47
2018-02-09T02:24:52.734Z,26.10
2018-02-09T02:27:20.660Z,27.57
2018-02-09T02:29:48.780Z,26.87
2018-02-09T02:32:16.535Z,25.67
2018-02-09T02:34:44.508Z,24.87
2018-02-09T02:37:12.329Z,24.13
2018-02-09T02:39:40.351Z,24.80
2018-02-09T02:42:08.316Z,26.47
2018-02-09T02:44:36.341Z,26.47
2018-02-09T02:47:04.207Z,24.77
2018-02-09T02:49:32.224Z,25.07
2018-02-09T02:52:00.395Z,24.03
2018-02-09T02:54:28.851Z,25.67
2018-02-09T02:56:56.759Z,26.83
2018-02-09T02:59:25.789Z,25.93
2018-02-09T03:01:53.987Z,24.97
2018-02-09T03:04:21.880Z,27.00
2018-02-09T03:06:50.055Z,25.53
2018-02-09T03:09:18.409Z,26.53
2018-02-09T03:11:46.687Z,23.17
2018-02-09T03:14:14.684Z,25.10
2018-02-09T03:16:42.648Z,24.87
2018-02-09T03:19:10.618Z,25.00
2018-02-09T03:21:38.556Z,25.10
2018-02-09T03:24:06.556Z,23.87
2018-02-09T03:26:34.731Z,23.43
2018-02-09T03:29:02.700Z,27.10
2018-02-09T03:31:30.677Z,25.40
2018-02-09T03:33:58.749Z,25.20
2018-02-09T03:36:27.071Z,24.80
2018-02-09T03:38:55.910Z,25.97
2018-02-09T03:41:23.877Z,24.67
2018-02-09T03:43:51.927Z,26.17
2018-02-09T03:46:19.944Z,25.67
2018-02-09T03:48:47.809Z,26.33
2018-02-09T03:51:16.723Z,24.97
2018-02-09T03:53:45.464Z,36.67
2018-02-09T03:56:14.563Z,30.40
2018-02-09T03:58:42.822Z,31.30
2018-02-09T04:01:11.215Z,29.37
2018-02-09T04:03:39.157Z,25.63
2018-02-09T04:06:07.257Z,24.67
2018-02-09T04:08:35.153Z,23.83
2018-02-09T04:11:03.043Z,28.43
2018-02-09T04:13:31.164Z,28.33
2018-02-09T04:15:58.988Z,26.60
2018-02-09T04:18:26.963Z,23.60
2018-02-09T04:20:54.973Z,24.77
2018-02-09T04:23:22.976Z,26.93
2018-02-09T04:25:51.941Z,25.40
2018-02-09T04:28:19.902Z,32.73
2018-02-09T04:30:47.973Z,26.47
2018-02-09T04:33:16.119Z,28.77
2018-02-09T04:35:44.007Z,25.40
2018-02-09T04:38:11.982Z,28.43
2018-02-09T04:40:40.054Z,30.47
2018-02-09T04:43:08.228Z,27.77
2018-02-09T04:45:36.047Z,27.57
2018-02-09T04:48:03.974Z,31.80
2018-02-09T04:50:33.327Z,106.27
2018-02-09T04:53:01.311Z,35.37
2018-02-09T04:55:29.512Z,34.83
2018-02-09T04:57:57.748Z,24.70
2018-02-09T05:00:25.814Z,26.87
2018-02-09T05:02:54.026Z,24.13
2018-02-09T05:05:22.308Z,24.97
2018-02-09T05:07:50.332Z,25.93
2018-02-09T05:10:19.480Z,31.17
2018-02-09T05:12:47.340Z,28.97
2018-02-09T05:15:15.528Z,27.20
2018-02-09T05:17:43.591Z,26.43
2018-02-09T05:20:11.872Z,28.03
2018-02-09T05:22:39.939Z,27.17
2018-02-09T05:25:08.118Z,28.47
2018-02-09T05:27:36.158Z,30.47
2018-02-09T05:30:04.160Z,29.70
2018-02-09T05:32:32.122Z,31.60
2018-02-09T05:35:00.026Z,30.73
2018-02-09T05:37:28.883Z,28.83
2018-02-09T05:39:56.850Z,32.07
2018-02-09T05:42:24.819Z,34.60
2018-02-09T05:44:52.787Z,31.57
2018-02-09T05:47:21.047Z,33.67
2018-02-09T05:49:49.136Z,30.70
2018-02-09T05:52:17.105Z,34.67
2018-02-09T05:54:45.282Z,33.17
2018-02-09T05:57:13.351Z,31.23
2018-02-09T05:59:41.443Z,32.43
2018-02-09T06:02:10.325Z,39.70
2018-02-09T06:04:38.179Z,37.40
2018-02-09T06:07:06.366Z,33.53
2018-02-09T06:09:34.220Z,31.57
2018-02-09T06:12:02.042Z,28.07
2018-02-09T06:14:30.263Z,30.00
2018-02-09T06:16:58.079Z,30.87
2018-02-09T06:19:26.056Z,35.57
2018-02-09T06:21:54.185Z,33.30
2018-02-09T06:24:22.137Z,37.30
2018-02-09T06:26:50.478Z,39.40
2018-02-09T06:29:18.327Z,37.90
2018-02-09T06:31:47.401Z,37.63
2018-02-09T06:34:15.403Z,37.77
2018-02-09T06:36:43.339Z,45.03
2018-02-09T06:39:11.544Z,42.40
2018-02-09T06:41:39.974Z,107.63
2018-02-09T06:44:07.943Z,109.73
2018-02-09T06:46:36.100Z,74.80
2018-02-09T06:49:04.001Z,44.07
2018-02-09T06:51:31.952Z,44.50
2018-02-09T06:53:59.921Z,40.60
2018-02-09T06:56:27.993Z,44.80
2018-02-09T06:58:56.166Z,40.13
2018-02-09T07:01:24.287Z,41.00
2018-02-09T07:03:53.096Z,43.87
2018-02-09T07:06:21.201Z,42.43
2018-02-09T07:08:49.439Z,41.07
2018-02-09T07:11:17.639Z,44.37
2018-02-09T07:13:45.621Z,39.67
2018-02-09T07:16:13.755Z,37.23
2018-02-09T07:18:42.276Z,43.50
2018-02-09T07:21:10.305Z,37.23
2018-02-09T07:23:38.211Z,42.10
2018-02-09T07:26:06.080Z,42.03
2018-02-09T07:28:34.027Z,44.90
2018-02-09T07:31:02.174Z,121.97
2018-02-09T07:33:30.398Z,137.20
2018-02-09T07:35:58.432Z,55.20
2018-02-09T07:38:26.603Z,58.67
2018-02-09T07:40:54.511Z,49.20
2018-02-09T07:43:22.480Z,42.17
2018-02-09T07:45:50.421Z,48.93
2018-02-09T07:48:18.414Z,44.67
2018-02-09T07:50:46.696Z,42.83
2018-02-09T07:53:14.843Z,47.87
2018-02-09T07:55:43.023Z,43.63
2018-02-09T07:58:11.218Z,39.33
2018-02-09T08:00:39.288Z,36.83
2018-02-09T08:03:07.257Z,43.13
2018-02-09T08:05:35.226Z,39.10
2018-02-09T08:08:03.147Z,43.23
2018-02-09T08:10:31.444Z,40.57
2018-02-09T08:12:59.653Z,44.97
2018-02-09T08:15:27.929Z,45.97
2018-02-09T08:17:56.076Z,40.47
2018-02-09T08:20:24.195Z,41.63
2018-02-09T08:22:52.504Z,40.77
2018-02-09T08:25:20.417Z,40.33
2018-02-09T08:27:48.654Z,37.20
2018-02-09T08:30:16.762Z,40.40
2018-02-09T08:32:44.629Z,36.23
2018-02-09T08:35:12.755Z,38.50
2018-02-09T08:37:40.652Z,39.77
2018-02-09T08:40:08.639Z,37.13
2018-02-09T08:42:36.946Z,37.43
2018-02-09T08:45:04.885Z,37.93
2018-02-09T08:47:32.810Z,40.23
2018-02-09T08:50:00.920Z,40.47
2018-02-09T08:52:28.897Z,42.63
2018-02-09T08:54:57.180Z,44.17
2018-02-09T08:57:25.336Z,41.67
2018-02-09T08:59:53.414Z,44.73
2018-02-09T09:02:21.386Z,43.10
2018-02-09T09:04:49.358Z,41.97
2018-02-09T09:07:17.328Z,43.07
2018-02-09T09:09:45.192Z,44.80
2018-02-09T09:12:13.459Z,48.53
2018-02-09T09:14:41.566Z,44.77
2018-02-09T09:17:09.717Z,45.80
2018-02-09T09:19:37.770Z,43.67
2018-02-09T09:22:05.653Z,43.07
2018-02-09T09:24:33.725Z,47.63
2018-02-09T09:27:02.078Z,47.03
2018-02-09T09:29:30.176Z,46.63
2018-02-09T09:31:58.317Z,47.97
2018-02-09T09:34:26.553Z,50.03
2018-02-09T09:36:55.313Z,50.33
2018-02-09T09:39:23.491Z,49.97
2018-02-09T09:41:51.636Z,47.00
2018-02-09T09:44:19.527Z,53.03
2018-02-09T09:46:47.702Z,49.30
2018-02-09T09:49:15.676Z,49.27
2018-02-09T09:51:43.924Z,50.93
2018-02-09T09:54:12.036Z,45.27
2018-02-09T09:56:39.988Z,53.20
2018-02-09T09:59:07.879Z,48.70
2018-02-09T10:01:35.879Z,51.83
2018-02-09T10:04:03.898Z,49.63
2018-02-09T10:06:31.950Z,47.40
2018-02-09T10:09:00.018Z,45.27
2018-02-09T10:11:28.199Z,47.90
2018-02-09T10:13:56.490Z,46.50
2018-02-09T10:16:24.552Z,51.07
2018-02-09T10:18:52.486Z,46.30
2018-02-09T10:21:20.397Z,50.10
2018-02-09T10:23:48.674Z,41.37
2018-02-09T10:26:16.957Z,42.43
2018-02-09T10:28:44.816Z,43.70
2018-02-09T10:31:12.884Z,45.17
2018-02-09T10:33:40.997Z,45.73
2018-02-09T10:36:09.646Z,45.70
2018-02-09T10:38:37.783Z,39.83
2018-02-09T10:41:05.789Z,37.83
2018-02-09T10:43:33.983Z,32.63
2018-02-09T10:46:01.882Z,31.53
2018-02-09T10:48:29.903Z,28.53
2018-02-09T10:50:57.973Z,27.57
2018-02-09T10:53:25.961Z,27.40
2018-02-09T10:55:54.019Z,28.57
2018-02-09T10:58:22.060Z,33.60
2018-02-09T11:00:55.688Z,31.70
2018-02-09T11:03:23.675Z,28.37
2018-02-09T11:05:51.653Z,26.40
2018-02-09T11:08:20.416Z,30.00
2018-02-09T11:10:49.587Z,31.63
2018-02-09T11:13:17.651Z,32.30
2018-02-09T11:15:45.919Z,31.37
2018-02-09T11:18:14.035Z,30.67
2018-02-09T11:20:41.909Z,28.73
2018-02-09T11:23:09.884Z,30.60
2018-02-09T11:25:37.941Z,28.60
2018-02-09T11:28:05.910Z,26.63
2018-02-09T11:30:34.268Z,27.67
2018-02-09T11:33:02.216Z,24.57
2018-02-09T11:35:30.247Z,30.00
2018-02-09T11:37:58.758Z,31.47
2018-02-09T11:40:27.602Z,28.93
2018-02-09T11:42:55.844Z,29.43
2018-02-09T11:45:23.887Z,30.60
2018-02-09T11:47:52.736Z,30.47
2018-02-09T11:50:20.896Z,29.47
2018-02-09T11:52:48.881Z,31.17
2018-02-09T11:55:17.566Z,29.70
2018-02-09T11:57:45.542Z,29.27
2018-02-09T12:00:13.684Z,28.93
2018-02-09T12:02:41.876Z,29.83
2018-02-09T12:05:09.750Z,28.07
2018-02-09T12:07:37.781Z,28.00
2018-02-09T12:10:05.614Z,25.00
2018-02-09T12:12:33.556Z,29.03
2018-02-09T12:15:02.031Z,28.00
2018-02-09T12:17:30.346Z,30.43
2018-02-09T12:19:59.306Z,28.77
2018-02-09T12:22:27.555Z,27.57
2018-02-09T12:24:55.552Z,29.17
2018-02-09T12:27:23.526Z,29.77
2018-02-09T12:29:51.886Z,26.37
2018-02-09T12:32:19.767Z,28.60
2018-02-09T12:34:47.942Z,29.73
2018-02-09T12:37:15.910Z,26.37
2018-02-09T12:39:43.876Z,28.10
2018-02-09T12:42:11.850Z,28.63
2018-02-09T12:44:40.226Z,29.07
2018-02-09T12:47:08.468Z,32.27
2018-02-09T12:49:36.480Z,30.73
2018-02-09T12:52:04.507Z,30.87
2018-02-09T12:54:32.987Z,29.93
2018-02-09T12:57:01.096Z,32.33
2018-02-09T12:59:29.271Z,31.33
2018-02-09T13:01:57.499Z,30.47
2018-02-09T13:04:25.486Z,29.83
2018-02-09T13:06:53.588Z,58.57
2018-02-09T13:09:21.558Z,59.67
2018-02-09T13:11:49.751Z,27.70
2018-02-09T13:14:30.694Z,25.67
2018-02-09T13:16:58.572Z,23.90
2018-02-09T13:19:26.675Z,29.50
2018-02-09T13:21:55.615Z,25.50
2018-02-09T13:24:26.678Z,26.57
2018-02-09T13:26:54.915Z,26.27
2018-02-09T13:29:22.896Z,25.67
2018-02-09T13:31:50.958Z,24.00
2018-02-09T13:34:18.895Z,24.57
2018-02-09T13:39:58.835Z,25.03
2018-02-09T13:42:26.906Z,21.43
2018-02-09T13:44:54.735Z,22.13
2018-02-09T13:47:22.946Z,25.63
2018-02-09T13:49:50.972Z,25.63
2018-02-09T13:52:18.886Z,23.40
2018-02-09T13:54:47.056Z,21.97
2018-02-09T13:57:15.466Z,22.33
2018-02-09T13:59:43.534Z,21.97
2018-02-09T14:02:11.857Z,23.87
2018-02-09T14:04:39.975Z,22.87
2018-02-09T14:07:08.852Z,21.23
2018-02-09T14:09:36.828Z,26.03
2018-02-09T14:12:05.511Z,24.37
2018-02-09T14:14:33.751Z,24.53
2018-02-09T14:17:02.397Z,27.17
2018-02-09T14:19:31.255Z,24.83
2018-02-09T14:21:59.234Z,23.03
2018-02-09T14:24:27.487Z,23.87
2018-02-09T14:26:55.751Z,24.20
2018-02-09T14:29:23.619Z,25.30
2018-02-09T14:31:52.009Z,25.67
2018-02-09T14:34:20.089Z,26.10
2018-02-09T14:36:48.116Z,70.20
2018-02-09T14:39:16.035Z,133.63
2018-02-09T14:41:44.126Z,25.47
2018-02-09T14:44:12.414Z,25.93
2018-02-09T14:46:41.384Z,26.47
2018-02-09T14:49:09.315Z,25.87
2018-02-09T14:51:38.134Z,25.83
2018-02-09T14:54:06.005Z,27.10
2018-02-09T14:56:34.257Z,26.10
2018-02-09T14:59:02.272Z,25.43
2018-02-09T15:01:30.240Z,24.20
2018-02-09T15:03:58.194Z,22.83
2018-02-09T15:06:27.196Z,26.47
2018-02-09T15:08:55.864Z,26.53
2018-02-09T15:11:23.802Z,25.73
2018-02-09T15:13:52.246Z,29.17
2018-02-09T15:16:20.901Z,25.53
2018-02-09T15:18:49.047Z,25.53
2018-02-09T15:21:17.118Z,27.40
2018-02-09T15:23:45.559Z,28.13
2018-02-09T15:26:14.415Z,27.10
2018-02-09T15:28:42.425Z,28.27
2018-02-09T15:31:11.173Z,24.87
2018-02-09T15:33:39.489Z,27.40
2018-02-09T15:36:08.341Z,29.47
2018-02-09T15:38:36.225Z,26.50
2018-02-09T15:41:04.484Z,25.40
2018-02-09T15:43:32.514Z,26.90
2018-02-09T15:46:00.727Z,24.93
2018-02-09T15:48:28.551Z,27.50
2018-02-09T15:50:56.835Z,28.37
2018-02-09T15:53:25.133Z,28.00
2018-02-09T15:55:53.460Z,27.10
2018-02-09T15:58:22.512Z,25.20
2018-02-09T16:00:50.699Z,24.80
2018-02-09T16:03:18.920Z,24.87
2018-02-09T16:05:48.251Z,23.40
2018-02-09T16:08:16.300Z,25.23
2018-02-09T16:10:44.395Z,25.23
2018-02-09T16:13:12.385Z,25.30
2018-02-09T16:15:40.675Z,20.47
2018-02-09T16:18:08.733Z,25.87
2018-02-09T16:20:36.972Z,22.87
2018-02-09T16:23:05.081Z,23.27
2018-02-09T16:25:33.106Z,25.73
2018-02-09T16:28:01.026Z,24.53
2018-02-09T16:30:29.176Z,26.63
2018-02-09T16:32:57.061Z,27.83
2018-02-09T16:35:25.133Z,25.27
2018-02-09T16:37:52.995Z,24.97
2018-02-09T16:40:20.863Z,28.10
2018-02-09T16:42:49.141Z,25.67
2018-02-09T16:45:17.398Z,26.80
2018-02-09T16:47:45.345Z,26.40
2018-02-09T16:50:13.358Z,25.53
2018-02-09T16:52:41.177Z,26.90
2018-02-09T16:55:09.195Z,23.37
2018-02-09T16:57:37.061Z,25.83
2018-02-09T17:00:05.140Z,23.63
2018-02-09T17:02:33.402Z,26.27
2018-02-09T17:05:01.459Z,23.30
2018-02-09T17:07:29.756Z,21.63
2018-02-09T17:09:58.055Z,25.93
2018-02-09T17:12:25.968Z,22.43
2018-02-09T17:14:54.369Z,27.00
2018-02-09T17:17:22.350Z,26.50
2018-02-09T17:19:50.745Z,34.37
2018-02-09T17:22:18.820Z,47.33
2018-02-09T17:24:46.770Z,42.87
2018-02-09T17:27:14.945Z,40.33
2018-02-09T17:29:42.914Z,41.27
2018-02-09T17:32:11.216Z,33.97
2018-02-09T17:34:39.467Z,27.67
2018-02-09T17:37:07.440Z,27.90
2018-02-09T17:39:35.635Z,28.27
2018-02-09T17:42:03.785Z,29.73
2018-02-09T17:44:31.752Z,27.53
2018-02-09T17:46:59.895Z,28.63
2018-02-09T17:49:28.225Z,27.90
2018-02-09T17:51:57.051Z,29.37
2018-02-09T17:54:25.128Z,29.03
2018-02-09T17:56:53.088Z,28.13
2018-02-09T17:59:21.012Z,28.87
2018-02-09T18:01:50.219Z,28.17
2018-02-09T18:04:18.067Z,33.10
2018-02-09T18:06:46.111Z,28.87
2018-02-09T18:09:14.400Z,31.63
2018-02-09T18:11:42.447Z,27.73
2018-02-09T18:14:10.633Z,29.40
2018-02-09T18:16:38.630Z,28.93
2018-02-09T18:19:06.600Z,29.80
2018-02-09T18:21:34.517Z,31.43
2018-02-09T18:24:02.537Z,28.77
2018-02-09T18:26:30.515Z,27.67
2018-02-09T18:28:58.671Z,26.43
2018-02-09T18:31:26.661Z,28.07
2018-02-09T18:33:54.899Z,30.77
2018-02-09T18:36:22.814Z,30.23
2018-02-09T18:38:50.943Z,30.53
2018-02-09T18:41:18.770Z,28.17
2018-02-09T18:43:47.708Z,34.03
2018-02-09T18:46:16.005Z,31.70
2018-02-09T18:48:43.869Z,31.27
2018-02-09T18:51:11.958Z,33.40
2018-02-09T18:53:39.841Z,34.90
2018-02-09T18:56:08.462Z,33.97
2018-02-09T18:58:36.431Z,34.40
2018-02-09T19:01:04.293Z,33.03
2018-02-09T19:03:32.300Z,32.97
2018-02-09T19:06:00.268Z,32.83
2018-02-09T19:08:28.136Z,32.97
2018-02-09T19:10:56.431Z,32.33
2018-02-09T19:13:24.555Z,32.07
2018-02-09T19:15:52.643Z,34.73
2018-02-09T19:18:20.934Z,30.80
2018-02-09T19:20:48.905Z,30.77
2018-02-09T19:23:16.871Z,32.00
2018-02-09T19:25:44.757Z,33.17
2018-02-09T19:28:12.820Z,28.57
2018-02-09T19:30:41.416Z,34.90
2018-02-09T19:33:09.459Z,33.23
2018-02-09T19:35:37.539Z,28.80
2018-02-09T19:38:05.405Z,36.33
2018-02-09T19:40:33.377Z,37.83
2018-02-09T19:43:01.275Z,42.63
2018-02-09T19:45:30.258Z,38.73
2018-02-09T19:47:59.229Z,36.93
2018-02-09T19:50:27.401Z,36.40
2018-02-09T19:52:55.380Z,36.80
2018-02-09T19:55:23.342Z,35.63
2018-02-09T19:57:51.417Z,34.97
2018-02-09T20:00:19.586Z,40.13
2018-02-09T20:02:47.861Z,37.50
2018-02-09T20:05:15.832Z,39.63
2018-02-09T20:07:44.009Z,39.73
2018-02-09T20:10:12.078Z,38.17
2018-02-09T20:12:40.254Z,36.60
2018-02-09T20:15:08.325Z,35.43
2018-02-09T20:17:36.294Z,34.43
2018-02-09T20:20:04.322Z,39.33
2018-02-09T20:22:32.589Z,34.30
2018-02-09T20:25:00.508Z,36.93
2018-02-09T20:27:28.427Z,32.70
2018-02-09T20:29:56.625Z,33.57
2018-02-09T20:32:24.620Z,43.90
2018-02-09T20:34:52.722Z,51.17
2018-02-09T20:37:21.686Z,55.73
2018-02-09T20:39:49.762Z,54.43
2018-02-09T20:42:17.932Z,54.73
2018-02-09T20:44:45.798Z,47.87
2018-02-09T20:47:13.664Z,36.80
2018-02-09T20:49:41.531Z,35.23
2018-02-09T20:52:09.415Z,40.57
2018-02-09T20:54:37.482Z,50.60
2018-02-09T20:57:05.335Z,56.57
2018-02-09T20:59:33.304Z,46.70
2018-02-09T21:02:01.275Z,43.00
2018-02-09T21:04:29.148Z,42.50
2018-02-09T21:06:57.318Z,42.87
2018-02-09T21:09:25.458Z,44.07
2018-02-09T21:11:53.460Z,44.50
2018-02-09T21:14:21.651Z,37.17
2018-02-09T21:16:50.728Z,37.30
2018-02-09T21:19:18.597Z,45.00
2018-02-09T21:21:46.872Z,51.77
2018-02-09T21:24:14.903Z,56.93
2018-02-09T21:26:43.025Z,60.30
2018-02-09T21:29:11.192Z,59.73
2018-02-09T21:31:39.057Z,57.13
2018-02-09T21:34:06.924Z,51.47
2018-02-09T21:36:35.268Z,49.63
2018-02-09T21:39:03.155Z,46.57
2018-02-09T21:41:31.407Z,39.77
2018-02-09T21:43:59.374Z,37.53
2018-02-09T21:46:27.508Z,37.20
2018-02-09T21:48:55.419Z,37.73
2018-02-09T21:51:23.392Z,39.30
2018-02-09T21:53:51.701Z,44.23
2018-02-09T21:56:19.570Z,43.87
2018-02-09T21:58:47.757Z,47.40
2018-02-09T22:01:15.813Z,48.23
2018-02-09T22:03:44.016Z,45.03
2018-02-09T22:06:12.276Z,39.53
2018-02-09T22:08:40.146Z,38.43
2018-02-09T22:11:08.203Z,40.50
2018-02-09T22:13:36.900Z,45.03
2018-02-09T22:16:04.755Z,52.73
2018-02-09T22:18:32.829Z,55.20
2018-02-09T22:21:00.763Z,62.27
2018-02-09T22:23:28.662Z,55.13
2018-02-09T22:25:56.925Z,60.30
2018-02-09T22:28:25.021Z,57.50
2018-02-09T22:30:53.155Z,53.83
2018-02-09T22:33:21.050Z,47.50
2018-02-09T22:35:49.143Z,49.67
2018-02-09T22:38:17.299Z,48.90
2018-02-09T22:40:45.165Z,48.73
2018-02-09T22:43:13.032Z,49.57
2018-02-09T22:45:41.002Z,45.67
2018-02-09T22:48:09.072Z,42.50
2018-02-09T22:50:37.136Z,39.57
2018-02-09T22:53:05.012Z,40.63
2018-02-09T22:55:32.979Z,45.67
2018-02-09T22:58:01.053Z,40.83
2018-02-09T23:00:29.328Z,38.33
2018-02-09T23:02:57.502Z,36.87
2018-02-09T23:05:25.595Z,37.17
2018-02-09T23:07:53.563Z,36.60
2018-02-09T23:10:21.615Z,37.97
2018-02-09T23:12:49.584Z,35.23
2018-02-09T23:15:17.563Z,40.27
2018-02-09T23:17:45.728Z,38.30
2018-02-09T23:20:13.799Z,37.37
2018-02-09T23:22:41.874Z,39.47
2018-02-09T23:25:09.864Z,38.57
2018-02-09T23:27:38.798Z,34.97
2018-02-09T23:30:06.811Z,35.47
2018-02-09T23:32:34.977Z,38.57
2018-02-09T23:35:02.855Z,37.33
2018-02-09T23:37:30.812Z,40.87
2018-02-09T23:39:59.631Z,39.40
2018-02-09T23:42:28.470Z,38.33
2018-02-09T23:44:56.358Z,39.37
2018-02-09T23:47:24.432Z,45.40
2018-02-09T23:49:52.418Z,43.13
2018-02-09T23:52:20.286Z,42.63
2018-02-09T23:54:48.219Z,44.17
2018-02-09T23:57:16.309Z,44.40
2018-02-09T23:59:44.255Z,42.17
